createdAt,value
2017-10-22T00:01:18.486Z,100375.13
2017-10-22T00:03:45.949Z,100374.82
2017-10-22T00:06:13.437Z,100370.59
2017-10-22T00:08:40.896Z,100379.51
2017-10-22T00:11:08.476Z,100375.44
2017-10-22T00:13:35.931Z,100372.94
2017-10-22T00:16:03.438Z,100377.38
2017-10-22T00:18:30.900Z,100383.92
2017-10-22T00:20:58.390Z,100389.48
2017-10-22T00:23:25.841Z,100390.73
2017-10-22T00:25:53.321Z,100388.53
2017-10-22T00:28:20.873Z,100384.77
2017-10-22T00:30:48.352Z,100387.77
2017-10-22T00:33:15.830Z,100385.02
2017-10-22T00:35:43.307Z,100389.20
2017-10-22T00:38:17.495Z,100392.22
2017-10-22T00:40:44.977Z,100395.02
2017-10-22T00:43:12.440Z,100392.52
2017-10-22T00:45:39.933Z,100389.53
2017-10-22T00:48:07.396Z,100388.91
2017-10-22T00:50:34.852Z,100381.75
2017-10-22T00:53:02.397Z,100378.17
2017-10-22T00:55:29.967Z,100375.04
2017-10-22T00:57:57.473Z,100385.45
2017-10-22T01:00:24.939Z,100385.94
2017-10-22T01:02:52.434Z,100378.89
2017-10-22T01:05:19.888Z,100377.97
2017-10-22T01:07:47.359Z,100384.20
2017-10-22T01:10:14.904Z,100377.15
2017-10-22T01:12:42.380Z,100373.83
2017-10-22T01:15:09.909Z,100370.84
2017-10-22T01:17:37.468Z,100364.48
2017-10-22T01:20:04.930Z,100367.33
2017-10-22T01:22:32.418Z,100367.40
2017-10-22T01:24:59.944Z,100367.02
2017-10-22T01:27:27.428Z,100362.87
2017-10-22T01:29:54.905Z,100360.73
2017-10-22T01:32:22.427Z,100351.38
2017-10-22T01:34:49.973Z,100355.30
2017-10-22T01:37:17.460Z,100343.80
2017-10-22T01:39:44.917Z,100350.27
2017-10-22T01:42:12.390Z,100341.98
2017-10-22T01:44:39.917Z,100340.73
2017-10-22T01:47:07.462Z,100337.16
2017-10-22T01:49:35.030Z,100337.80
2017-10-22T01:52:02.525Z,100341.87
2017-10-22T01:54:29.986Z,100340.16
2017-10-22T01:56:57.496Z,100335.48
2017-10-22T01:59:24.949Z,100332.37
2017-10-22T02:01:52.436Z,100332.41
2017-10-22T02:04:19.986Z,100332.33
2017-10-22T02:06:47.522Z,100333.61
2017-10-22T02:09:15.027Z,100338.66
2017-10-22T02:11:42.507Z,100336.63
2017-10-22T02:14:10.001Z,100340.38
2017-10-22T02:16:37.464Z,100349.56
2017-10-22T02:19:04.974Z,100346.73
2017-10-22T02:21:32.428Z,100355.97
2017-10-22T02:23:59.916Z,100340.75
2017-10-22T02:26:27.375Z,100329.20
2017-10-22T02:28:54.859Z,100321.23
2017-10-22T02:31:22.321Z,100327.39
2017-10-22T02:33:49.830Z,100316.59
2017-10-22T02:36:17.289Z,100321.05
2017-10-22T02:38:44.805Z,100329.29
2017-10-22T02:41:12.272Z,100321.78
2017-10-22T02:43:39.741Z,100323.56
2017-10-22T02:46:07.209Z,100323.55
2017-10-22T02:48:34.797Z,100322.52
2017-10-22T02:51:02.347Z,100333.09
2017-10-22T02:53:29.829Z,100323.98
2017-10-22T02:55:57.307Z,100322.55
2017-10-22T02:58:24.788Z,100311.56
2017-10-22T03:00:52.253Z,100317.11
2017-10-22T03:03:19.737Z,100310.80
2017-10-22T03:05:47.222Z,100312.13
2017-10-22T03:08:14.700Z,100311.97
2017-10-22T03:10:42.177Z,100305.13
2017-10-22T03:13:09.694Z,100314.24
2017-10-22T03:15:37.153Z,100305.25
2017-10-22T03:18:04.677Z,100302.46
2017-10-22T03:20:32.205Z,100310.88
2017-10-22T03:22:59.687Z,100298.95
2017-10-22T03:25:27.140Z,100305.93
2017-10-22T03:27:54.618Z,100305.95
2017-10-22T03:30:22.086Z,100314.24
2017-10-22T03:32:49.615Z,100307.47
2017-10-22T03:35:17.072Z,100302.31
2017-10-22T03:37:44.571Z,100299.05
2017-10-22T03:40:12.024Z,100302.86
2017-10-22T03:42:39.556Z,100302.55
2017-10-22T03:45:07.113Z,100304.90
2017-10-22T03:47:34.573Z,100313.67
2017-10-22T03:50:02.062Z,100307.67
2017-10-22T03:52:29.533Z,100306.59
2017-10-22T03:54:57.008Z,100298.56
2017-10-22T03:57:24.481Z,100298.97
2017-10-22T03:59:51.965Z,100312.49
2017-10-22T04:02:19.436Z,100310.55
2017-10-22T04:04:46.917Z,100311.02
2017-10-22T04:07:14.621Z,100306.10
2017-10-22T04:09:42.105Z,100307.41
2017-10-22T04:12:09.622Z,100298.13
2017-10-22T04:14:37.122Z,100306.27
2017-10-22T04:17:04.626Z,100303.23
2017-10-22T04:19:32.145Z,100307.61
2017-10-22T04:21:59.605Z,100299.02
2017-10-22T04:24:27.090Z,100303.69
2017-10-22T04:26:54.594Z,100299.66
2017-10-22T04:29:22.077Z,100296.55
2017-10-22T04:31:49.528Z,100293.19
2017-10-22T04:34:17.049Z,100287.85
2017-10-22T04:36:44.521Z,100278.86
2017-10-22T04:39:12.000Z,100272.30
2017-10-22T04:41:39.457Z,100268.67
2017-10-22T04:44:06.984Z,100271.47
2017-10-22T04:46:34.447Z,100271.69
2017-10-22T04:49:02.046Z,100266.28
2017-10-22T04:51:29.513Z,100268.84
2017-10-22T04:53:57.011Z,100257.19
2017-10-22T04:56:24.514Z,100267.02
2017-10-22T04:58:52.014Z,100268.38
2017-10-22T05:01:19.487Z,100267.75
2017-10-22T05:03:46.967Z,100268.05
2017-10-22T05:06:14.441Z,100265.62
2017-10-22T05:08:41.952Z,100269.05
2017-10-22T05:11:09.429Z,100267.34
2017-10-22T05:13:36.987Z,100263.63
2017-10-22T05:16:04.468Z,100260.80
2017-10-22T05:18:31.952Z,100256.81
2017-10-22T05:20:59.458Z,100253.66
2017-10-22T05:23:27.021Z,100252.97
2017-10-22T05:25:54.529Z,100251.66
2017-10-22T05:28:22.840Z,100242.95
2017-10-22T05:30:50.319Z,100250.64
2017-10-22T05:33:17.808Z,100246.10
2017-10-22T05:35:45.297Z,100244.58
2017-10-22T05:38:12.758Z,100242.30
2017-10-22T05:40:40.262Z,100245.15
2017-10-22T05:43:07.727Z,100245.28
2017-10-22T05:45:35.244Z,100246.53
2017-10-22T05:48:02.806Z,100237.63
2017-10-22T05:50:30.288Z,100245.04
2017-10-22T05:52:57.753Z,100244.34
2017-10-22T05:55:25.284Z,100245.72
2017-10-22T05:57:52.742Z,100253.14
2017-10-22T06:00:20.217Z,100251.61
2017-10-22T06:02:47.765Z,100254.25
2017-10-22T06:05:15.333Z,100252.30
2017-10-22T06:07:42.860Z,100254.80
2017-10-22T06:10:10.420Z,100257.42
2017-10-22T06:12:37.871Z,100265.44
2017-10-22T06:15:05.486Z,100272.14
2017-10-22T06:17:40.481Z,100268.95
2017-10-22T06:20:08.028Z,100264.98
2017-10-22T06:22:35.504Z,100274.60
2017-10-22T06:25:02.987Z,100272.31
2017-10-22T06:27:30.533Z,100276.34
2017-10-22T06:29:58.024Z,100271.94
2017-10-22T06:32:25.487Z,100276.83
2017-10-22T06:34:52.966Z,100277.70
2017-10-22T06:37:20.452Z,100279.03
2017-10-22T06:39:47.946Z,100278.73
2017-10-22T06:42:15.408Z,100279.59
2017-10-22T06:44:42.889Z,100279.98
2017-10-22T06:47:10.346Z,100286.59
2017-10-22T06:49:37.825Z,100285.64
2017-10-22T06:52:05.304Z,100285.33
2017-10-22T06:54:32.803Z,100282.48
2017-10-22T06:57:00.296Z,100279.73
2017-10-22T06:59:27.753Z,100289.29
2017-10-22T07:01:55.586Z,100293.20
2017-10-22T07:04:23.119Z,100290.98
2017-10-22T07:06:50.615Z,100294.79
2017-10-22T07:09:18.068Z,100293.50
2017-10-22T07:11:45.555Z,100297.34
2017-10-22T07:14:13.060Z,100302.65
2017-10-22T07:16:40.541Z,100295.03
2017-10-22T07:19:08.007Z,100299.44
2017-10-22T07:21:35.485Z,100295.66
2017-10-22T07:24:02.953Z,100300.70
2017-10-22T07:26:30.479Z,100302.59
2017-10-22T07:28:58.040Z,100297.32
2017-10-22T07:31:25.530Z,100297.63
2017-10-22T07:33:52.997Z,100288.78
2017-10-22T07:36:20.474Z,100289.50
2017-10-22T07:38:48.042Z,100288.11
2017-10-22T07:41:15.549Z,100285.34
2017-10-22T07:43:43.003Z,100285.25
2017-10-22T07:46:10.553Z,100282.08
2017-10-22T07:48:38.048Z,100289.44
2017-10-22T07:51:05.521Z,100287.87
2017-10-22T07:53:33.027Z,100283.97
2017-10-22T07:56:00.624Z,100286.39
2017-10-22T07:58:28.096Z,100288.61
2017-10-22T08:00:55.548Z,100290.69
2017-10-22T08:03:23.049Z,100289.07
2017-10-22T08:05:50.518Z,100295.56
2017-10-22T08:08:18.021Z,100290.61
2017-10-22T08:10:45.529Z,100298.35
2017-10-22T08:13:13.017Z,100302.00
2017-10-22T08:15:40.484Z,100295.50
2017-10-22T08:18:07.975Z,100304.33
2017-10-22T08:20:35.438Z,100304.17
2017-10-22T08:23:02.937Z,100301.51
2017-10-22T08:25:30.412Z,100309.38
2017-10-22T08:27:57.894Z,100314.20
2017-10-22T08:30:25.364Z,100303.15
2017-10-22T08:32:52.941Z,100310.16
2017-10-22T08:35:20.430Z,100311.09
2017-10-22T08:37:47.904Z,100313.66
2017-10-22T08:40:15.364Z,100313.55
2017-10-22T08:42:42.839Z,100312.54
2017-10-22T08:45:10.326Z,100314.60
2017-10-22T08:47:37.876Z,100312.73
2017-10-22T08:50:05.362Z,100319.54
2017-10-22T08:52:32.850Z,100322.66
2017-10-22T08:55:00.309Z,100316.15
2017-10-22T08:57:27.817Z,100317.35
2017-10-22T08:59:55.373Z,100322.41
2017-10-22T09:02:22.933Z,100324.71
2017-10-22T09:04:50.501Z,100320.60
2017-10-22T09:07:17.976Z,100331.05
2017-10-22T09:09:45.434Z,100337.72
2017-10-22T09:12:12.973Z,100331.96
2017-10-22T09:14:40.427Z,100335.15
2017-10-22T09:17:07.910Z,100333.09
2017-10-22T09:19:35.430Z,100332.52
2017-10-22T09:22:02.918Z,100334.80
2017-10-22T09:24:30.373Z,100333.44
2017-10-22T09:26:57.857Z,100334.12
2017-10-22T09:29:25.360Z,100334.02
2017-10-22T09:31:52.817Z,100324.59
2017-10-22T09:34:20.425Z,100323.45
2017-10-22T09:36:47.884Z,100323.80
2017-10-22T09:39:15.361Z,100327.61
2017-10-22T09:41:42.829Z,100336.05
2017-10-22T09:44:10.314Z,100331.75
2017-10-22T09:46:37.877Z,100331.44
2017-10-22T09:49:05.366Z,100328.05
2017-10-22T09:51:32.857Z,100333.52
2017-10-22T09:54:00.366Z,100327.61
2017-10-22T09:56:27.821Z,100326.54
2017-10-22T09:58:55.303Z,100325.70
2017-10-22T10:01:22.761Z,100321.83
2017-10-22T10:03:50.241Z,100321.20
2017-10-22T10:06:17.709Z,100316.59
2017-10-22T10:08:45.201Z,100318.80
2017-10-22T10:11:12.788Z,100316.61
2017-10-22T10:13:40.305Z,100325.66
2017-10-22T10:16:07.766Z,100322.36
2017-10-22T10:18:35.310Z,100319.00
2017-10-22T10:21:02.777Z,100321.06
2017-10-22T10:23:30.323Z,100313.21
2017-10-22T10:25:57.873Z,100318.31
2017-10-22T10:28:25.349Z,100316.43
2017-10-22T10:30:52.817Z,100318.05
2017-10-22T10:33:20.301Z,100315.49
2017-10-22T10:35:47.756Z,100315.08
2017-10-22T10:38:15.245Z,100313.73
2017-10-22T10:40:42.707Z,100312.30
2017-10-22T10:43:10.282Z,100308.34
2017-10-22T10:45:37.745Z,100309.59
2017-10-22T10:48:05.225Z,100303.40
2017-10-22T10:50:32.684Z,100304.20
2017-10-22T10:53:00.204Z,100305.86
2017-10-22T10:55:27.765Z,100313.95
2017-10-22T10:57:55.380Z,100311.82
2017-10-22T11:00:22.859Z,100315.59
2017-10-22T11:02:50.325Z,100314.14
2017-10-22T11:05:17.950Z,100307.22
2017-10-22T11:07:45.402Z,100310.66
2017-10-22T11:10:12.926Z,100305.88
2017-10-22T11:12:40.401Z,100296.11
2017-10-22T11:15:07.934Z,100295.50
2017-10-22T11:17:35.493Z,100295.25
2017-10-22T11:20:03.058Z,100294.25
2017-10-22T11:22:30.613Z,100295.12
2017-10-22T11:24:58.095Z,100298.91
2017-10-22T11:27:25.553Z,100297.14
2017-10-22T11:29:53.037Z,100297.91
2017-10-22T11:32:20.492Z,100299.91
2017-10-22T11:34:47.983Z,100301.83
2017-10-22T11:37:15.461Z,100296.98
2017-10-22T11:39:42.937Z,100290.29
2017-10-22T11:42:10.393Z,100289.58
2017-10-22T11:44:37.894Z,100284.86
2017-10-22T11:47:05.349Z,100277.41
2017-10-22T11:49:32.822Z,100283.96
2017-10-22T11:52:00.285Z,100279.25
2017-10-22T11:54:27.793Z,100275.92
2017-10-22T11:56:55.253Z,100278.86
2017-10-22T11:59:22.764Z,100275.55
2017-10-22T12:01:50.248Z,100272.72
2017-10-22T12:04:17.741Z,100275.59
2017-10-22T12:06:45.201Z,100268.08
2017-10-22T12:09:12.730Z,100281.73
2017-10-22T12:11:40.193Z,100270.09
2017-10-22T12:14:07.714Z,100271.39
2017-10-22T12:16:35.274Z,100267.64
2017-10-22T12:19:02.785Z,100271.06
2017-10-22T12:21:30.245Z,100269.94
2017-10-22T12:23:57.717Z,100262.70
2017-10-22T12:26:25.206Z,100270.84
2017-10-22T12:28:52.656Z,100269.53
2017-10-22T12:31:20.255Z,100272.70
2017-10-22T12:33:47.726Z,100264.00
2017-10-22T12:36:15.200Z,100269.53
2017-10-22T12:38:42.671Z,100266.85
2017-10-22T12:41:10.190Z,100272.34
2017-10-22T12:43:37.702Z,100274.25
2017-10-22T12:46:05.198Z,100266.28
2017-10-22T12:48:32.681Z,100271.88
2017-10-22T12:51:00.157Z,100271.41
2017-10-22T12:53:27.729Z,100272.62
2017-10-22T12:55:55.217Z,100275.77
2017-10-22T12:58:22.740Z,100271.38
2017-10-22T13:00:50.247Z,100276.86
2017-10-22T13:03:17.710Z,100275.19
2017-10-22T13:05:45.195Z,100279.44
2017-10-22T13:08:12.659Z,100276.70
2017-10-22T13:10:40.133Z,100274.69
2017-10-22T13:13:07.611Z,100270.87
2017-10-22T13:15:35.068Z,100275.28
2017-10-22T13:18:02.560Z,100278.59
2017-10-22T13:20:30.057Z,100277.87
2017-10-22T13:22:57.551Z,100282.78
2017-10-22T13:25:25.019Z,100277.72
2017-10-22T13:27:52.562Z,100289.61
2017-10-22T13:30:20.027Z,100284.86
2017-10-22T13:32:47.507Z,100275.81
2017-10-22T13:35:14.984Z,100281.16
2017-10-22T13:37:42.460Z,100289.45
2017-10-22T13:40:09.909Z,100288.30
2017-10-22T13:42:37.433Z,100285.72
2017-10-22T13:45:04.910Z,100282.99
2017-10-22T13:47:32.380Z,100287.30
2017-10-22T13:49:59.901Z,100288.30
2017-10-22T13:52:27.352Z,100284.39
2017-10-22T13:54:54.862Z,100296.95
2017-10-22T13:57:22.321Z,100288.59
2017-10-22T13:59:49.877Z,100299.68
2017-10-22T14:02:17.331Z,100300.06
2017-10-22T14:04:44.819Z,100288.31
2017-10-22T14:07:12.388Z,100295.83
2017-10-22T14:09:39.900Z,100295.77
2017-10-22T14:12:07.362Z,100298.84
2017-10-22T14:14:34.913Z,100300.29
2017-10-22T14:17:02.494Z,100304.23
2017-10-22T14:19:29.965Z,100305.02
2017-10-22T14:21:57.447Z,100304.69
2017-10-22T14:24:24.915Z,100307.05
2017-10-22T14:26:52.397Z,100308.58
2017-10-22T14:29:19.957Z,100320.08
2017-10-22T14:31:47.521Z,100317.97
2017-10-22T14:34:14.986Z,100315.70
2017-10-22T14:36:42.469Z,100313.78
2017-10-22T14:39:09.924Z,100318.34
2017-10-22T14:41:37.402Z,100321.56
2017-10-22T14:44:04.870Z,100320.98
2017-10-22T14:46:32.340Z,100321.09
2017-10-22T14:48:59.801Z,100320.45
2017-10-22T14:51:27.376Z,100320.86
2017-10-22T14:53:54.828Z,100321.99
2017-10-22T14:56:22.306Z,100320.52
2017-10-22T14:58:49.839Z,100323.59
2017-10-22T15:01:17.338Z,100323.96
2017-10-22T15:03:44.810Z,100313.64
2017-10-22T15:06:12.316Z,100312.92
2017-10-22T15:08:39.786Z,100319.50
2017-10-22T15:11:07.240Z,100322.98
2017-10-22T15:13:34.738Z,100319.06
2017-10-22T15:16:02.205Z,100319.44
2017-10-22T15:18:29.716Z,100327.76
2017-10-22T15:20:57.204Z,100322.31
2017-10-22T15:23:24.682Z,100318.25
2017-10-22T15:25:52.156Z,100327.05
2017-10-22T15:28:19.645Z,100320.91
2017-10-22T15:30:47.149Z,100321.80
2017-10-22T15:33:14.621Z,100323.52
2017-10-22T15:35:42.085Z,100331.20
2017-10-22T15:38:09.577Z,100331.67
2017-10-22T15:40:37.054Z,100337.41
2017-10-22T15:43:04.553Z,100334.33
2017-10-22T15:45:32.029Z,100342.95
2017-10-22T15:47:59.517Z,100340.57
2017-10-22T15:50:27.050Z,100341.27
2017-10-22T15:52:54.552Z,100341.75
2017-10-22T15:55:22.009Z,100346.05
2017-10-22T15:57:49.485Z,100345.41
2017-10-22T16:00:16.957Z,100353.55
2017-10-22T16:02:44.447Z,100358.19
2017-10-22T16:05:11.977Z,100352.48
2017-10-22T16:07:39.477Z,100351.05
2017-10-22T16:10:06.940Z,100359.94
2017-10-22T16:12:34.421Z,100359.50
2017-10-22T16:15:01.922Z,100361.86
2017-10-22T16:17:29.402Z,100363.46
2017-10-22T16:19:56.886Z,100367.48
2017-10-22T16:22:24.361Z,100370.64
2017-10-22T16:24:51.822Z,100369.86
2017-10-22T16:27:19.301Z,100368.55
2017-10-22T16:29:46.860Z,100371.61
2017-10-22T16:32:14.329Z,100373.13
2017-10-22T16:34:41.826Z,100386.80
2017-10-22T16:37:09.283Z,100384.77
2017-10-22T16:39:36.770Z,100390.73
2017-10-22T16:42:04.229Z,100385.97
2017-10-22T16:44:31.713Z,100385.18
2017-10-22T16:46:59.168Z,100393.20
2017-10-22T16:49:26.670Z,100390.53
2017-10-22T16:51:54.193Z,100399.41
2017-10-22T16:54:21.660Z,100402.77
2017-10-22T16:56:49.130Z,100409.53
2017-10-22T16:59:16.629Z,100413.98
2017-10-22T17:01:44.118Z,100414.13
2017-10-22T17:04:11.661Z,100417.95
2017-10-22T17:06:39.220Z,100418.67
2017-10-22T17:09:06.711Z,100422.91
2017-10-22T17:11:34.237Z,100428.15
2017-10-22T17:14:01.729Z,100430.02
2017-10-22T17:16:29.201Z,100428.15
2017-10-22T17:18:56.705Z,100439.70
2017-10-22T17:21:24.175Z,100428.29
2017-10-22T17:23:51.733Z,100437.94
2017-10-22T17:26:19.189Z,100441.81
2017-10-22T17:28:46.659Z,100442.05
2017-10-22T17:31:14.120Z,100440.59
2017-10-22T17:33:41.605Z,100437.47
2017-10-22T17:36:09.069Z,100446.39
2017-10-22T17:38:36.551Z,100440.91
2017-10-22T17:41:04.042Z,100450.13
2017-10-22T17:43:31.524Z,100445.22
2017-10-22T17:45:59.042Z,100454.16
2017-10-22T17:48:26.543Z,100448.54
2017-10-22T17:50:54.002Z,100452.62
2017-10-22T17:53:21.483Z,100454.95
2017-10-22T17:55:48.941Z,100457.92
2017-10-22T17:58:16.526Z,100459.33
2017-10-22T18:00:43.993Z,100468.11
2017-10-22T18:03:11.542Z,100474.25
2017-10-22T18:05:39.042Z,100473.33
2017-10-22T18:08:06.488Z,100471.67
2017-10-22T18:10:33.965Z,100473.77
2017-10-22T18:13:01.476Z,100475.66
2017-10-22T18:15:28.949Z,100472.63
2017-10-22T18:17:56.477Z,100477.61
2017-10-22T18:20:24.042Z,100477.55
2017-10-22T18:22:51.493Z,100475.45
2017-10-22T18:25:19.104Z,100477.61
2017-10-22T18:27:46.622Z,100481.39
2017-10-22T18:30:14.106Z,100481.84
2017-10-22T18:32:41.561Z,100483.20
2017-10-22T18:35:09.055Z,100484.62
2017-10-22T18:37:36.516Z,100489.78
2017-10-22T18:40:03.988Z,100486.01
2017-10-22T18:42:31.438Z,100487.47
2017-10-22T18:44:58.937Z,100483.36
2017-10-22T18:47:26.401Z,100481.67
2017-10-22T18:49:53.934Z,100490.17
2017-10-22T18:52:21.413Z,100478.84
2017-10-22T18:54:48.945Z,100484.59
2017-10-22T18:57:16.402Z,100488.45
2017-10-22T18:59:43.905Z,100486.41
2017-10-22T19:02:11.365Z,100487.22
2017-10-22T19:04:38.845Z,100485.80
2017-10-22T19:07:06.345Z,100485.85
2017-10-22T19:09:33.889Z,100490.75
2017-10-22T19:12:01.370Z,100492.22
2017-10-22T19:14:28.846Z,100493.45
2017-10-22T19:16:56.356Z,100498.89
2017-10-22T19:19:23.843Z,100498.27
2017-10-22T19:21:51.306Z,100497.06
2017-10-22T19:24:18.853Z,100503.47
2017-10-22T19:26:46.321Z,100497.89
2017-10-22T19:29:13.808Z,100500.30
2017-10-22T19:31:41.309Z,100506.17
2017-10-22T19:34:08.789Z,100509.24
2017-10-22T19:36:36.263Z,100510.66
2017-10-22T19:39:03.738Z,100510.31
2017-10-22T19:41:31.221Z,100512.20
2017-10-22T19:43:58.698Z,100512.92
2017-10-22T19:46:26.176Z,100518.41
2017-10-22T19:48:53.705Z,100516.23
2017-10-22T19:51:21.189Z,100519.70
2017-10-22T19:53:48.647Z,100531.44
2017-10-22T19:56:16.120Z,100536.99
2017-10-22T19:58:43.594Z,100529.98
2017-10-22T20:01:11.443Z,100533.01
2017-10-22T20:03:38.914Z,100533.23
2017-10-22T20:06:06.434Z,100538.73
2017-10-22T20:08:34.012Z,100544.34
2017-10-22T20:11:01.538Z,100545.16
2017-10-22T20:13:29.006Z,100548.13
2017-10-22T20:15:56.591Z,100551.13
2017-10-22T20:18:24.056Z,100550.26
2017-10-22T20:20:51.572Z,100546.66
2017-10-22T20:23:19.048Z,100551.07
2017-10-22T20:25:46.558Z,100554.44
2017-10-22T20:28:14.021Z,100553.13
2017-10-22T20:30:41.584Z,100550.30
2017-10-22T20:33:09.057Z,100554.75
2017-10-22T20:35:36.608Z,100560.75
2017-10-22T20:38:04.165Z,100559.34
2017-10-22T20:40:31.647Z,100564.12
2017-10-22T20:42:59.105Z,100561.89
2017-10-22T20:45:26.670Z,100564.27
2017-10-22T20:47:54.138Z,100563.99
2017-10-22T20:50:21.621Z,100563.66
2017-10-22T20:52:49.281Z,100564.43
2017-10-22T20:55:17.439Z,100568.42
2017-10-22T20:57:45.569Z,100567.15
2017-10-22T21:00:13.266Z,100569.48
2017-10-22T21:02:41.151Z,100566.22
2017-10-22T21:05:08.677Z,100569.85
2017-10-22T21:07:36.294Z,100572.45
2017-10-22T21:10:03.774Z,100576.00
2017-10-22T21:12:31.553Z,100578.72
2017-10-22T21:14:59.249Z,100571.05
2017-10-22T21:17:26.792Z,100572.89
2017-10-22T21:19:54.310Z,100584.58
2017-10-22T21:22:22.035Z,100582.18
2017-10-22T21:24:50.248Z,100583.88
2017-10-22T21:27:17.956Z,100583.07
2017-10-22T21:29:45.462Z,100581.44
2017-10-22T21:32:13.257Z,100580.25
2017-10-22T21:34:40.723Z,100583.19
2017-10-22T21:37:09.826Z,100584.93
2017-10-22T21:39:37.431Z,100578.99
2017-10-22T21:42:05.341Z,100581.12
2017-10-22T21:44:32.851Z,100576.25
2017-10-22T21:47:01.082Z,100589.53
2017-10-22T21:49:29.973Z,100590.00
2017-10-22T21:51:58.121Z,100587.25
2017-10-22T21:54:25.638Z,100584.81
2017-10-22T21:56:53.789Z,100584.56
2017-10-22T21:59:21.526Z,100588.55
2017-10-22T22:01:49.005Z,100586.36
2017-10-22T22:04:16.464Z,100584.32
2017-10-22T22:06:44.203Z,100582.93
2017-10-22T22:09:11.681Z,100581.78
2017-10-22T22:11:39.316Z,100589.95
2017-10-22T22:14:06.911Z,100584.19
2017-10-22T22:16:35.536Z,100590.19
2017-10-22T22:19:03.017Z,100587.05
2017-10-22T22:21:30.535Z,100592.73
2017-10-22T22:23:57.984Z,100586.20
2017-10-22T22:26:25.461Z,100598.59
2017-10-22T22:28:52.937Z,100594.61
2017-10-22T22:31:20.414Z,100601.31
2017-10-22T22:33:47.877Z,100605.10
2017-10-22T22:36:15.368Z,100599.78
2017-10-22T22:38:42.821Z,100601.87
2017-10-22T22:41:10.509Z,100596.67
2017-10-22T22:43:38.067Z,100595.19
2017-10-22T22:46:05.545Z,100605.69
2017-10-22T22:48:33.013Z,100599.72
2017-10-22T22:51:00.510Z,100592.98
2017-10-22T22:53:27.991Z,100596.28
2017-10-22T22:55:55.481Z,100594.52
2017-10-22T22:58:23.013Z,100591.76
2017-10-22T23:00:50.479Z,100594.05
2017-10-22T23:03:17.967Z,100595.63
2017-10-22T23:05:45.426Z,100594.33
2017-10-22T23:08:12.896Z,100594.58
2017-10-22T23:10:40.353Z,100602.68
2017-10-22T23:13:07.829Z,100601.95
2017-10-22T23:15:35.286Z,100603.19
2017-10-22T23:18:02.894Z,100595.27
2017-10-22T23:20:30.344Z,100587.56
2017-10-22T23:22:57.884Z,100593.36
2017-10-22T23:25:25.335Z,100588.93
2017-10-22T23:27:52.820Z,100589.87
2017-10-22T23:30:20.356Z,100586.67
2017-10-22T23:32:47.845Z,100585.66
2017-10-22T23:35:15.306Z,100590.89
2017-10-22T23:37:42.784Z,100590.52
2017-10-22T23:40:10.242Z,100596.45
2017-10-22T23:42:37.741Z,100597.39
2017-10-22T23:45:05.208Z,100594.73
2017-10-22T23:47:32.680Z,100592.56
2017-10-22T23:50:00.173Z,100593.67
2017-10-22T23:52:27.667Z,100589.97
2017-10-22T23:54:55.129Z,100592.16
2017-10-22T23:57:22.655Z,100590.34
2017-10-22T23:59:50.110Z,100592.51
